Pagina principală
METAR-TAF:

METAR-TAF

Aeroporturi :

Insula Wake, Statele Unite ale Americii

Latitudine: 19-17N, longitudine: 166-39E, elevație: 4 m

METAR: lipsă

Ora: 11:58 (23:58 UTC)

Prognoză

Raportul a fost făcut în urmă cu 1 oră și 58 de minute, la 22:00 UTC
Prognoză valabilă de la 03 ora 22 UTC la 05 ora 04 UTC
Vânt 20 kt de la Est
Vizibilitate de 10 km sau mai mult
Nori puțini la o înălțime de 2500 picior
Nori împrăștiați la o înălțime de 4500 picior
Devenind
de la 04 ora 12 UTC la 04 ora 13 UTC
Vânt 12 kt de la Est
Vizibilitate: 0406 m
Nori fragmentați la o înălțime de 2600 picior

TAF: PWAK 032200Z 0322/0504 08020KT 9999 FEW025 SCT045 QNH2995INS BECMG 0412/0413 08012KT 9999 BKN026 QNH3000INS TX31/0409Z TN26/0419Z LIMITED METWATCH 0322 TIL 0406 FOR MIL USE ONLY

Observații și prognoze meteo pentru peste 4.000 de aeroporturi (rapoarte METAR și TAF).

Stațiile disponibile sunt reprezentate pe hartă prin puncte galbene și roșii.

Țineți indicatorul mouse-ului pe punctul dorit pentru a vedea denumirea stației.

Apoi, faceți clic pentru a vedea observațiile și prognozele meteorologice.

Pentru a schimba harta: Pentru mărire, faceți clic pe butoanele verzi cu cruce neagră; pentru micșorare, pe butonul verde cu o liniuță; pentru hărți învecinate, pe săgețile verzi.


METAR-TAF: